sensor_id;sensor_type;location;lat;lon;timestamp;P1;durP1;ratioP1;P2;durP2;ratioP2
73776;SDS011;62088;50.240;2.696;2023-05-02T00:01:53;21.15;;;15.05;;
73776;SDS011;62088;50.240;2.696;2023-05-02T00:04:21;29.65;;;17.70;;
73776;SDS011;62088;50.240;2.696;2023-05-02T00:06:48;21.92;;;16.10;;
73776;SDS011;62088;50.240;2.696;2023-05-02T00:09:18;25.67;;;16.70;;
73776;SDS011;62088;50.240;2.696;2023-05-02T00:11:45;25.27;;;15.98;;
73776;SDS011;62088;50.240;2.696;2023-05-02T00:14:12;23.50;;;15.98;;
73776;SDS011;62088;50.240;2.696;2023-05-02T00:16:39;30.10;;;17.05;;
73776;SDS011;62088;50.240;2.696;2023-05-02T00:19:06;23.00;;;15.90;;
73776;SDS011;62088;50.240;2.696;2023-05-02T00:21:33;19.15;;;14.52;;
73776;SDS011;62088;50.240;2.696;2023-05-02T00:24:00;25.67;;;16.17;;
73776;SDS011;62088;50.240;2.696;2023-05-02T00:26:27;29.73;;;18.95;;
73776;SDS011;62088;50.240;2.696;2023-05-02T00:28:54;26.95;;;17.33;;
73776;SDS011;62088;50.240;2.696;2023-05-02T00:31:21;23.50;;;17.20;;
73776;SDS011;62088;50.240;2.696;2023-05-02T00:33:48;20.23;;;14.90;;
73776;SDS011;62088;50.240;2.696;2023-05-02T00:36:16;25.83;;;18.42;;
73776;SDS011;62088;50.240;2.696;2023-05-02T00:38:44;25.00;;;15.68;;
73776;SDS011;62088;50.240;2.696;2023-05-02T00:41:11;27.20;;;17.02;;
73776;SDS011;62088;50.240;2.696;2023-05-02T00:43:39;26.95;;;17.55;;
73776;SDS011;62088;50.240;2.696;2023-05-02T00:46:06;22.25;;;14.90;;
73776;SDS011;62088;50.240;2.696;2023-05-02T00:48:33;27.00;;;16.77;;
73776;SDS011;62088;50.240;2.696;2023-05-02T00:51:04;23.73;;;16.90;;
73776;SDS011;62088;50.240;2.696;2023-05-02T00:53:31;24.95;;;17.83;;
73776;SDS011;62088;50.240;2.696;2023-05-02T00:55:58;23.52;;;16.17;;
73776;SDS011;62088;50.240;2.696;2023-05-02T00:58:27;25.20;;;16.98;;
73776;SDS011;62088;50.240;2.696;2023-05-02T01:01:32;26.17;;;18.17;;
73776;SDS011;62088;50.240;2.696;2023-05-02T01:04:06;22.15;;;16.02;;
73776;SDS011;62088;50.240;2.696;2023-05-02T01:14:49;26.85;;;18.75;;
73776;SDS011;62088;50.240;2.696;2023-05-02T01:17:19;28.15;;;17.83;;
73776;SDS011;62088;50.240;2.696;2023-05-02T01:19:51;24.45;;;16.27;;
73776;SDS011;62088;50.240;2.696;2023-05-02T01:22:21;24.60;;;16.77;;
73776;SDS011;62088;50.240;2.696;2023-05-02T01:25:10;24.10;;;16.50;;
73776;SDS011;62088;50.240;2.696;2023-05-02T01:28:09;26.08;;;17.15;;
73776;SDS011;62088;50.240;2.696;2023-05-02T01:30:56;24.08;;;16.08;;
73776;SDS011;62088;50.240;2.696;2023-05-02T01:33:24;23.58;;;16.25;;
73776;SDS011;62088;50.240;2.696;2023-05-02T01:35:53;23.73;;;16.48;;
73776;SDS011;62088;50.240;2.696;2023-05-02T01:38:21;25.92;;;17.48;;
73776;SDS011;62088;50.240;2.696;2023-05-02T01:40:50;27.20;;;17.45;;
73776;SDS011;62088;50.240;2.696;2023-05-02T01:43:19;24.42;;;16.15;;
73776;SDS011;62088;50.240;2.696;2023-05-02T01:45:48;26.73;;;17.63;;
73776;SDS011;62088;50.240;2.696;2023-05-02T01:48:16;29.83;;;17.90;;
73776;SDS011;62088;50.240;2.696;2023-05-02T01:50:45;22.17;;;15.40;;
73776;SDS011;62088;50.240;2.696;2023-05-02T01:53:14;23.10;;;15.82;;
73776;SDS011;62088;50.240;2.696;2023-05-02T01:55:42;25.88;;;17.80;;
73776;SDS011;62088;50.240;2.696;2023-05-02T01:58:11;28.98;;;18.10;;
73776;SDS011;62088;50.240;2.696;2023-05-02T02:00:40;26.83;;;18.05;;
73776;SDS011;62088;50.240;2.696;2023-05-02T02:03:11;26.67;;;18.30;;
73776;SDS011;62088;50.240;2.696;2023-05-02T02:05:39;25.95;;;16.92;;
73776;SDS011;62088;50.240;2.696;2023-05-02T02:08:07;28.20;;;18.88;;
73776;SDS011;62088;50.240;2.696;2023-05-02T02:10:35;27.48;;;17.70;;
73776;SDS011;62088;50.240;2.696;2023-05-02T02:13:18;31.95;;;18.92;;
73776;SDS011;62088;50.240;2.696;2023-05-02T02:16:00;28.98;;;17.95;;
73776;SDS011;62088;50.240;2.696;2023-05-02T02:18:37;27.48;;;17.17;;
73776;SDS011;62088;50.240;2.696;2023-05-02T02:21:05;23.80;;;16.73;;
73776;SDS011;62088;50.240;2.696;2023-05-02T02:23:35;27.15;;;16.92;;
73776;SDS011;62088;50.240;2.696;2023-05-02T02:26:05;27.88;;;17.83;;
73776;SDS011;62088;50.240;2.696;2023-05-02T02:28:34;28.48;;;19.75;;
73776;SDS011;62088;50.240;2.696;2023-05-02T02:31:01;26.75;;;16.27;;
73776;SDS011;62088;50.240;2.696;2023-05-02T02:33:29;28.52;;;18.65;;
73776;SDS011;62088;50.240;2.696;2023-05-02T02:36:04;27.38;;;18.67;;
73776;SDS011;62088;50.240;2.696;2023-05-02T02:38:45;26.42;;;18.00;;
73776;SDS011;62088;50.240;2.696;2023-05-02T02:41:26;29.75;;;18.58;;
73776;SDS011;62088;50.240;2.696;2023-05-02T02:49:28;27.60;;;18.13;;
73776;SDS011;62088;50.240;2.696;2023-05-02T02:55:16;31.23;;;17.30;;
73776;SDS011;62088;50.240;2.696;2023-05-02T02:57:59;26.25;;;16.45;;
73776;SDS011;62088;50.240;2.696;2023-05-02T03:00:32;28.15;;;17.15;;
73776;SDS011;62088;50.240;2.696;2023-05-02T03:03:01;25.92;;;17.95;;
73776;SDS011;62088;50.240;2.696;2023-05-02T03:05:29;25.88;;;17.02;;
73776;SDS011;62088;50.240;2.696;2023-05-02T03:07:58;28.98;;;17.83;;
73776;SDS011;62088;50.240;2.696;2023-05-02T03:10:26;27.27;;;17.77;;
73776;SDS011;62088;50.240;2.696;2023-05-02T03:12:53;31.52;;;17.55;;
73776;SDS011;62088;50.240;2.696;2023-05-02T03:18:21;27.92;;;17.48;;
73776;SDS011;62088;50.240;2.696;2023-05-02T03:20:49;26.90;;;17.52;;
73776;SDS011;62088;50.240;2.696;2023-05-02T03:23:17;27.73;;;18.60;;
73776;SDS011;62088;50.240;2.696;2023-05-02T03:25:44;27.80;;;17.83;;
73776;SDS011;62088;50.240;2.696;2023-05-02T03:28:17;28.73;;;19.00;;
73776;SDS011;62088;50.240;2.696;2023-05-02T03:30:46;27.33;;;18.10;;
73776;SDS011;62088;50.240;2.696;2023-05-02T03:33:13;26.38;;;16.33;;
73776;SDS011;62088;50.240;2.696;2023-05-02T03:35:42;22.38;;;15.18;;
73776;SDS011;62088;50.240;2.696;2023-05-02T03:38:11;25.50;;;16.48;;
73776;SDS011;62088;50.240;2.696;2023-05-02T03:40:38;27.15;;;18.35;;
73776;SDS011;62088;50.240;2.696;2023-05-02T03:43:09;23.75;;;16.35;;
73776;SDS011;62088;50.240;2.696;2023-05-02T03:45:37;27.02;;;18.05;;
73776;SDS011;62088;50.240;2.696;2023-05-02T03:48:04;30.58;;;18.75;;
73776;SDS011;62088;50.240;2.696;2023-05-02T03:50:31;27.88;;;18.08;;
73776;SDS011;62088;50.240;2.696;2023-05-02T03:52:59;27.73;;;18.02;;
73776;SDS011;62088;50.240;2.696;2023-05-02T03:55:39;25.00;;;17.35;;
73776;SDS011;62088;50.240;2.696;2023-05-02T03:58:10;26.38;;;17.40;;
73776;SDS011;62088;50.240;2.696;2023-05-02T04:00:37;24.40;;;16.67;;
73776;SDS011;62088;50.240;2.696;2023-05-02T04:03:06;23.00;;;16.42;;
73776;SDS011;62088;50.240;2.696;2023-05-02T04:05:38;26.98;;;18.42;;
73776;SDS011;62088;50.240;2.696;2023-05-02T04:08:05;27.52;;;19.58;;
73776;SDS011;62088;50.240;2.696;2023-05-02T04:10:32;25.73;;;18.13;;
73776;SDS011;62088;50.240;2.696;2023-05-02T04:13:02;27.42;;;17.33;;
73776;SDS011;62088;50.240;2.696;2023-05-02T04:15:31;23.80;;;17.70;;
73776;SDS011;62088;50.240;2.696;2023-05-02T04:17:59;24.65;;;16.58;;
73776;SDS011;62088;50.240;2.696;2023-05-02T04:20:27;22.35;;;16.25;;
73776;SDS011;62088;50.240;2.696;2023-05-02T04:22:55;21.27;;;15.43;;
73776;SDS011;62088;50.240;2.696;2023-05-02T04:25:22;25.25;;;18.33;;
73776;SDS011;62088;50.240;2.696;2023-05-02T04:27:51;21.98;;;16.50;;
73776;SDS011;62088;50.240;2.696;2023-05-02T04:30:21;24.30;;;17.17;;
73776;SDS011;62088;50.240;2.696;2023-05-02T04:32:56;23.67;;;17.02;;
73776;SDS011;62088;50.240;2.696;2023-05-02T04:35:25;23.58;;;16.48;;
73776;SDS011;62088;50.240;2.696;2023-05-02T04:37:53;26.17;;;17.85;;
73776;SDS011;62088;50.240;2.696;2023-05-02T04:40:20;20.60;;;15.80;;
73776;SDS011;62088;50.240;2.696;2023-05-02T04:42:53;23.30;;;16.30;;
73776;SDS011;62088;50.240;2.696;2023-05-02T04:45:23;23.30;;;16.65;;
73776;SDS011;62088;50.240;2.696;2023-05-02T04:47:51;22.15;;;15.68;;
73776;SDS011;62088;50.240;2.696;2023-05-02T04:50:18;22.45;;;16.20;;
73776;SDS011;62088;50.240;2.696;2023-05-02T04:52:45;21.48;;;14.80;;
73776;SDS011;62088;50.240;2.696;2023-05-02T04:55:13;21.98;;;15.57;;
73776;SDS011;62088;50.240;2.696;2023-05-02T04:57:40;21.70;;;16.40;;
73776;SDS011;62088;50.240;2.696;2023-05-02T05:00:12;21.05;;;14.88;;
73776;SDS011;62088;50.240;2.696;2023-05-02T05:02:39;21.23;;;16.00;;
73776;SDS011;62088;50.240;2.696;2023-05-02T05:05:12;22.33;;;16.27;;
73776;SDS011;62088;50.240;2.696;2023-05-02T05:07:40;20.20;;;14.88;;
73776;SDS011;62088;50.240;2.696;2023-05-02T05:10:07;22.10;;;15.60;;
73776;SDS011;62088;50.240;2.696;2023-05-02T05:12:43;17.15;;;12.65;;
73776;SDS011;62088;50.240;2.696;2023-05-02T05:15:10;18.45;;;13.23;;
73776;SDS011;62088;50.240;2.696;2023-05-02T05:17:41;20.75;;;15.02;;
73776;SDS011;62088;50.240;2.696;2023-05-02T05:20:08;18.40;;;13.38;;
73776;SDS011;62088;50.240;2.696;2023-05-02T05:22:38;21.38;;;14.95;;
73776;SDS011;62088;50.240;2.696;2023-05-02T05:25:06;23.48;;;15.55;;
73776;SDS011;62088;50.240;2.696;2023-05-02T05:27:36;22.85;;;15.65;;
73776;SDS011;62088;50.240;2.696;2023-05-02T05:30:05;24.33;;;16.73;;
73776;SDS011;62088;50.240;2.696;2023-05-02T05:32:32;21.13;;;15.40;;
73776;SDS011;62088;50.240;2.696;2023-05-02T05:35:00;21.40;;;15.90;;
73776;SDS011;62088;50.240;2.696;2023-05-02T05:37:27;22.65;;;15.65;;
73776;SDS011;62088;50.240;2.696;2023-05-02T05:39:57;21.85;;;15.52;;
73776;SDS011;62088;50.240;2.696;2023-05-02T05:42:24;23.63;;;14.40;;
73776;SDS011;62088;50.240;2.696;2023-05-02T05:44:55;21.80;;;14.48;;
73776;SDS011;62088;50.240;2.696;2023-05-02T05:47:23;22.67;;;15.68;;
73776;SDS011;62088;50.240;2.696;2023-05-02T05:49:54;21.50;;;15.35;;
73776;SDS011;62088;50.240;2.696;2023-05-02T05:52:26;23.58;;;17.67;;
73776;SDS011;62088;50.240;2.696;2023-05-02T05:54:54;24.05;;;16.58;;
73776;SDS011;62088;50.240;2.696;2023-05-02T05:57:26;24.77;;;16.95;;
73776;SDS011;62088;50.240;2.696;2023-05-02T05:59:55;26.13;;;17.77;;
73776;SDS011;62088;50.240;2.696;2023-05-02T06:02:22;22.95;;;16.67;;
73776;SDS011;62088;50.240;2.696;2023-05-02T06:04:49;30.85;;;19.15;;
73776;SDS011;62088;50.240;2.696;2023-05-02T06:07:20;27.23;;;16.58;;
73776;SDS011;62088;50.240;2.696;2023-05-02T06:09:47;30.55;;;19.63;;
73776;SDS011;62088;50.240;2.696;2023-05-02T06:12:17;33.50;;;21.13;;
73776;SDS011;62088;50.240;2.696;2023-05-02T06:14:45;30.02;;;18.95;;
73776;SDS011;62088;50.240;2.696;2023-05-02T06:17:12;29.83;;;19.08;;
73776;SDS011;62088;50.240;2.696;2023-05-02T06:19:39;34.38;;;21.13;;
73776;SDS011;62088;50.240;2.696;2023-05-02T06:22:07;41.38;;;22.90;;
73776;SDS011;62088;50.240;2.696;2023-05-02T06:24:34;29.67;;;19.35;;
73776;SDS011;62088;50.240;2.696;2023-05-02T06:27:02;34.13;;;23.10;;
73776;SDS011;62088;50.240;2.696;2023-05-02T06:29:29;40.13;;;23.40;;
73776;SDS011;62088;50.240;2.696;2023-05-02T06:31:56;31.25;;;22.02;;
73776;SDS011;62088;50.240;2.696;2023-05-02T06:34:23;34.15;;;22.17;;
73776;SDS011;62088;50.240;2.696;2023-05-02T06:36:54;34.75;;;22.05;;
73776;SDS011;62088;50.240;2.696;2023-05-02T06:39:24;32.87;;;21.67;;
73776;SDS011;62088;50.240;2.696;2023-05-02T06:41:55;34.20;;;23.52;;
73776;SDS011;62088;50.240;2.696;2023-05-02T06:44:24;39.92;;;25.52;;
73776;SDS011;62088;50.240;2.696;2023-05-02T06:46:51;39.50;;;25.98;;
73776;SDS011;62088;50.240;2.696;2023-05-02T06:49:18;39.60;;;27.73;;
73776;SDS011;62088;50.240;2.696;2023-05-02T06:51:45;38.92;;;27.35;;
73776;SDS011;62088;50.240;2.696;2023-05-02T06:54:12;38.42;;;27.15;;
73776;SDS011;62088;50.240;2.696;2023-05-02T06:56:43;40.95;;;27.70;;
73776;SDS011;62088;50.240;2.696;2023-05-02T06:59:10;39.15;;;27.02;;
73776;SDS011;62088;50.240;2.696;2023-05-02T07:01:37;41.85;;;25.70;;
73776;SDS011;62088;50.240;2.696;2023-05-02T07:04:04;32.05;;;22.63;;
73776;SDS011;62088;50.240;2.696;2023-05-02T07:06:32;33.30;;;22.02;;
73776;SDS011;62088;50.240;2.696;2023-05-02T07:08:59;31.75;;;21.80;;
73776;SDS011;62088;50.240;2.696;2023-05-02T07:11:26;30.23;;;20.52;;
73776;SDS011;62088;50.240;2.696;2023-05-02T07:13:53;29.90;;;21.15;;
73776;SDS011;62088;50.240;2.696;2023-05-02T07:16:20;27.95;;;20.02;;
73776;SDS011;62088;50.240;2.696;2023-05-02T07:18:47;31.27;;;21.42;;
73776;SDS011;62088;50.240;2.696;2023-05-02T07:21:14;29.35;;;21.48;;
73776;SDS011;62088;50.240;2.696;2023-05-02T07:23:41;30.98;;;21.90;;
73776;SDS011;62088;50.240;2.696;2023-05-02T07:26:08;30.52;;;20.48;;
73776;SDS011;62088;50.240;2.696;2023-05-02T07:28:35;31.48;;;22.02;;
73776;SDS011;62088;50.240;2.696;2023-05-02T07:31:03;31.92;;;21.88;;
73776;SDS011;62088;50.240;2.696;2023-05-02T07:33:30;30.10;;;21.25;;
73776;SDS011;62088;50.240;2.696;2023-05-02T07:35:57;29.90;;;20.73;;
73776;SDS011;62088;50.240;2.696;2023-05-02T07:38:24;28.67;;;21.20;;
73776;SDS011;62088;50.240;2.696;2023-05-02T07:40:56;27.77;;;20.20;;
73776;SDS011;62088;50.240;2.696;2023-05-02T07:43:24;30.17;;;22.02;;
73776;SDS011;62088;50.240;2.696;2023-05-02T07:45:51;32.70;;;23.08;;
73776;SDS011;62088;50.240;2.696;2023-05-02T07:48:18;33.35;;;23.80;;
73776;SDS011;62088;50.240;2.696;2023-05-02T07:50:45;36.83;;;25.38;;
73776;SDS011;62088;50.240;2.696;2023-05-02T07:53:12;31.65;;;23.35;;
73776;SDS011;62088;50.240;2.696;2023-05-02T07:55:39;31.20;;;22.77;;
73776;SDS011;62088;50.240;2.696;2023-05-02T07:58:06;28.75;;;21.95;;
73776;SDS011;62088;50.240;2.696;2023-05-02T08:00:33;30.23;;;22.85;;
73776;SDS011;62088;50.240;2.696;2023-05-02T08:03:00;30.10;;;21.00;;
73776;SDS011;62088;50.240;2.696;2023-05-02T08:05:28;29.45;;;21.73;;
73776;SDS011;62088;50.240;2.696;2023-05-02T08:07:55;27.70;;;20.92;;
73776;SDS011;62088;50.240;2.696;2023-05-02T08:10:22;26.55;;;19.80;;
73776;SDS011;62088;50.240;2.696;2023-05-02T08:12:49;26.20;;;19.48;;
73776;SDS011;62088;50.240;2.696;2023-05-02T08:15:16;27.55;;;19.17;;
73776;SDS011;62088;50.240;2.696;2023-05-02T08:17:43;25.27;;;17.25;;
73776;SDS011;62088;50.240;2.696;2023-05-02T08:20:12;24.70;;;17.35;;
73776;SDS011;62088;50.240;2.696;2023-05-02T08:22:39;23.40;;;16.98;;
73776;SDS011;62088;50.240;2.696;2023-05-02T08:25:06;23.13;;;15.27;;
73776;SDS011;62088;50.240;2.696;2023-05-02T08:27:33;17.98;;;14.43;;
73776;SDS011;62088;50.240;2.696;2023-05-02T08:30:00;18.20;;;13.90;;
73776;SDS011;62088;50.240;2.696;2023-05-02T08:32:28;19.13;;;14.30;;
73776;SDS011;62088;50.240;2.696;2023-05-02T08:34:55;22.08;;;14.20;;
73776;SDS011;62088;50.240;2.696;2023-05-02T08:37:22;20.10;;;13.70;;
73776;SDS011;62088;50.240;2.696;2023-05-02T08:39:49;15.35;;;12.73;;
73776;SDS011;62088;50.240;2.696;2023-05-02T08:42:16;19.10;;;13.18;;
73776;SDS011;62088;50.240;2.696;2023-05-02T08:44:47;16.88;;;12.07;;
73776;SDS011;62088;50.240;2.696;2023-05-02T08:47:14;13.75;;;11.10;;
73776;SDS011;62088;50.240;2.696;2023-05-02T08:49:44;17.83;;;11.57;;
73776;SDS011;62088;50.240;2.696;2023-05-02T08:52:12;14.85;;;10.77;;
73776;SDS011;62088;50.240;2.696;2023-05-02T08:54:39;15.40;;;10.90;;
73776;SDS011;62088;50.240;2.696;2023-05-02T08:57:07;14.60;;;10.25;;
73776;SDS011;62088;50.240;2.696;2023-05-02T08:59:35;15.55;;;10.70;;
73776;SDS011;62088;50.240;2.696;2023-05-02T09:02:04;15.32;;;10.88;;
73776;SDS011;62088;50.240;2.696;2023-05-02T09:04:44;14.02;;;9.63;;
73776;SDS011;62088;50.240;2.696;2023-05-02T09:07:16;13.70;;;9.85;;
73776;SDS011;62088;50.240;2.696;2023-05-02T09:09:43;14.82;;;9.90;;
73776;SDS011;62088;50.240;2.696;2023-05-02T09:12:10;16.83;;;10.48;;
73776;SDS011;62088;50.240;2.696;2023-05-02T09:14:37;14.30;;;9.00;;
73776;SDS011;62088;50.240;2.696;2023-05-02T09:17:04;13.75;;;9.73;;
73776;SDS011;62088;50.240;2.696;2023-05-02T09:19:31;17.58;;;9.10;;
73776;SDS011;62088;50.240;2.696;2023-05-02T09:21:59;13.48;;;8.85;;
73776;SDS011;62088;50.240;2.696;2023-05-02T09:24:27;12.75;;;9.27;;
73776;SDS011;62088;50.240;2.696;2023-05-02T09:26:58;11.63;;;8.15;;
73776;SDS011;62088;50.240;2.696;2023-05-02T09:29:31;11.73;;;8.38;;
73776;SDS011;62088;50.240;2.696;2023-05-02T09:32:03;10.75;;;8.15;;
73776;SDS011;62088;50.240;2.696;2023-05-02T09:34:32;12.27;;;8.63;;
73776;SDS011;62088;50.240;2.696;2023-05-02T09:36:59;14.98;;;8.80;;
73776;SDS011;62088;50.240;2.696;2023-05-02T09:39:28;10.95;;;7.97;;
73776;SDS011;62088;50.240;2.696;2023-05-02T09:41:56;10.73;;;8.20;;
73776;SDS011;62088;50.240;2.696;2023-05-02T09:44:24;12.20;;;8.60;;
73776;SDS011;62088;50.240;2.696;2023-05-02T09:46:53;10.27;;;7.78;;
73776;SDS011;62088;50.240;2.696;2023-05-02T09:54:39;16.25;;;8.30;;
73776;SDS011;62088;50.240;2.696;2023-05-02T09:57:06;11.30;;;7.90;;
73776;SDS011;62088;50.240;2.696;2023-05-02T09:59:33;12.10;;;7.63;;
73776;SDS011;62088;50.240;2.696;2023-05-02T10:02:04;10.68;;;7.90;;
73776;SDS011;62088;50.240;2.696;2023-05-02T10:04:33;10.38;;;7.60;;
73776;SDS011;62088;50.240;2.696;2023-05-02T10:07:00;10.45;;;7.32;;
73776;SDS011;62088;50.240;2.696;2023-05-02T10:09:28;13.90;;;10.35;;
73776;SDS011;62088;50.240;2.696;2023-05-02T10:11:59;14.40;;;10.15;;
73776;SDS011;62088;50.240;2.696;2023-05-02T10:14:40;13.05;;;10.48;;
73776;SDS011;62088;50.240;2.696;2023-05-02T10:17:27;17.88;;;10.65;;
73776;SDS011;62088;50.240;2.696;2023-05-02T10:20:04;13.82;;;10.45;;
73776;SDS011;62088;50.240;2.696;2023-05-02T10:22:33;16.00;;;12.02;;
73776;SDS011;62088;50.240;2.696;2023-05-02T10:25:01;16.67;;;13.32;;
73776;SDS011;62088;50.240;2.696;2023-05-02T10:27:29;16.13;;;13.77;;
73776;SDS011;62088;50.240;2.696;2023-05-02T10:29:58;16.17;;;13.60;;
73776;SDS011;62088;50.240;2.696;2023-05-02T10:32:26;15.30;;;11.40;;
73776;SDS011;62088;50.240;2.696;2023-05-02T10:34:57;12.80;;;10.10;;
73776;SDS011;62088;50.240;2.696;2023-05-02T10:37:29;12.30;;;9.60;;
73776;SDS011;62088;50.240;2.696;2023-05-02T10:40:02;12.98;;;10.13;;
73776;SDS011;62088;50.240;2.696;2023-05-02T10:42:29;20.67;;;11.00;;
73776;SDS011;62088;50.240;2.696;2023-05-02T10:44:57;16.73;;;12.77;;
73776;SDS011;62088;50.240;2.696;2023-05-02T10:47:26;18.13;;;14.23;;
73776;SDS011;62088;50.240;2.696;2023-05-02T10:49:56;16.90;;;14.45;;
73776;SDS011;62088;50.240;2.696;2023-05-02T11:00:32;13.88;;;11.77;;
73776;SDS011;62088;50.240;2.696;2023-05-02T11:03:00;16.00;;;11.23;;
73776;SDS011;62088;50.240;2.696;2023-05-02T11:05:28;14.63;;;10.77;;
73776;SDS011;62088;50.240;2.696;2023-05-02T11:10:41;9.82;;;8.30;;
73776;SDS011;62088;50.240;2.696;2023-05-02T11:13:08;13.02;;;9.70;;
73776;SDS011;62088;50.240;2.696;2023-05-02T11:18:05;12.85;;;9.88;;
73776;SDS011;62088;50.240;2.696;2023-05-02T11:20:34;14.82;;;9.65;;
73776;SDS011;62088;50.240;2.696;2023-05-02T11:25:54;13.65;;;9.05;;
73776;SDS011;62088;50.240;2.696;2023-05-02T11:28:41;12.32;;;9.73;;
73776;SDS011;62088;50.240;2.696;2023-05-02T11:33:58;9.70;;;8.13;;
73776;SDS011;62088;50.240;2.696;2023-05-02T11:36:27;10.63;;;7.95;;
73776;SDS011;62088;50.240;2.696;2023-05-02T11:39:02;10.25;;;7.40;;
73776;SDS011;62088;50.240;2.696;2023-05-02T11:41:41;8.60;;;6.68;;
73776;SDS011;62088;50.240;2.696;2023-05-02T11:44:09;9.48;;;6.53;;
73776;SDS011;62088;50.240;2.696;2023-05-02T11:46:36;8.73;;;5.93;;
73776;SDS011;62088;50.240;2.696;2023-05-02T11:49:05;7.47;;;5.80;;
73776;SDS011;62088;50.240;2.696;2023-05-02T11:51:35;7.57;;;5.65;;
73776;SDS011;62088;50.240;2.696;2023-05-02T11:54:02;11.45;;;5.60;;
73776;SDS011;62088;50.240;2.696;2023-05-02T11:56:30;9.00;;;5.45;;
73776;SDS011;62088;50.240;2.696;2023-05-02T11:58:57;6.93;;;5.03;;
73776;SDS011;62088;50.240;2.696;2023-05-02T12:01:26;8.00;;;6.07;;
73776;SDS011;62088;50.240;2.696;2023-05-02T12:04:03;8.15;;;4.82;;
73776;SDS011;62088;50.240;2.696;2023-05-02T12:06:34;6.43;;;4.40;;
73776;SDS011;62088;50.240;2.696;2023-05-02T12:09:05;8.88;;;4.68;;
73776;SDS011;62088;50.240;2.696;2023-05-02T12:11:36;5.90;;;4.47;;
73776;SDS011;62088;50.240;2.696;2023-05-02T12:14:04;7.38;;;5.07;;
73776;SDS011;62088;50.240;2.696;2023-05-02T12:16:32;6.60;;;4.30;;
73776;SDS011;62088;50.240;2.696;2023-05-02T12:18:59;9.70;;;5.40;;
73776;SDS011;62088;50.240;2.696;2023-05-02T12:21:27;7.80;;;5.10;;
73776;SDS011;62088;50.240;2.696;2023-05-02T12:24:03;6.88;;;4.28;;
73776;SDS011;62088;50.240;2.696;2023-05-02T12:26:31;8.45;;;4.47;;
73776;SDS011;62088;50.240;2.696;2023-05-02T12:28:59;7.55;;;4.18;;
73776;SDS011;62088;50.240;2.696;2023-05-02T12:31:28;7.00;;;4.60;;
73776;SDS011;62088;50.240;2.696;2023-05-02T12:33:57;6.07;;;3.67;;
73776;SDS011;62088;50.240;2.696;2023-05-02T12:36:26;7.68;;;4.32;;
73776;SDS011;62088;50.240;2.696;2023-05-02T12:38:54;6.78;;;4.35;;
73776;SDS011;62088;50.240;2.696;2023-05-02T12:41:34;6.70;;;4.40;;
73776;SDS011;62088;50.240;2.696;2023-05-02T12:44:03;8.40;;;4.65;;
73776;SDS011;62088;50.240;2.696;2023-05-02T12:46:31;6.18;;;4.32;;
73776;SDS011;62088;50.240;2.696;2023-05-02T12:49:08;7.07;;;4.03;;
73776;SDS011;62088;50.240;2.696;2023-05-02T12:51:38;6.35;;;4.32;;
73776;SDS011;62088;50.240;2.696;2023-05-02T12:54:06;6.75;;;4.30;;
73776;SDS011;62088;50.240;2.696;2023-05-02T12:56:39;6.25;;;4.43;;
73776;SDS011;62088;50.240;2.696;2023-05-02T12:59:09;7.32;;;4.57;;
73776;SDS011;62088;50.240;2.696;2023-05-02T13:01:51;7.25;;;4.15;;
73776;SDS011;62088;50.240;2.696;2023-05-02T13:04:18;6.05;;;4.00;;
73776;SDS011;62088;50.240;2.696;2023-05-02T13:06:45;6.38;;;4.30;;
73776;SDS011;62088;50.240;2.696;2023-05-02T13:09:12;7.60;;;3.92;;
73776;SDS011;62088;50.240;2.696;2023-05-02T13:11:39;6.28;;;3.97;;
73776;SDS011;62088;50.240;2.696;2023-05-02T13:14:07;7.80;;;4.30;;
73776;SDS011;62088;50.240;2.696;2023-05-02T13:16:36;6.07;;;4.50;;
73776;SDS011;62088;50.240;2.696;2023-05-02T13:19:04;6.60;;;4.50;;
73776;SDS011;62088;50.240;2.696;2023-05-02T13:21:31;7.32;;;5.10;;
73776;SDS011;62088;50.240;2.696;2023-05-02T13:23:58;6.25;;;4.57;;
73776;SDS011;62088;50.240;2.696;2023-05-02T13:26:25;5.78;;;4.03;;
73776;SDS011;62088;50.240;2.696;2023-05-02T13:28:52;6.05;;;4.28;;
73776;SDS011;62088;50.240;2.696;2023-05-02T13:31:19;7.05;;;4.55;;
73776;SDS011;62088;50.240;2.696;2023-05-02T13:33:47;8.77;;;4.30;;
73776;SDS011;62088;50.240;2.696;2023-05-02T13:36:14;7.45;;;4.35;;
73776;SDS011;62088;50.240;2.696;2023-05-02T13:38:41;6.20;;;4.57;;
73776;SDS011;62088;50.240;2.696;2023-05-02T13:41:08;6.10;;;4.63;;
73776;SDS011;62088;50.240;2.696;2023-05-02T13:43:35;6.25;;;3.95;;
73776;SDS011;62088;50.240;2.696;2023-05-02T13:46:02;6.20;;;4.10;;
73776;SDS011;62088;50.240;2.696;2023-05-02T13:48:29;8.90;;;4.72;;
73776;SDS011;62088;50.240;2.696;2023-05-02T13:50:56;6.30;;;4.50;;
73776;SDS011;62088;50.240;2.696;2023-05-02T13:53:23;5.90;;;4.20;;
73776;SDS011;62088;50.240;2.696;2023-05-02T13:55:51;7.07;;;4.43;;
73776;SDS011;62088;50.240;2.696;2023-05-02T13:58:17;8.90;;;4.68;;
73776;SDS011;62088;50.240;2.696;2023-05-02T14:00:44;7.65;;;4.28;;
73776;SDS011;62088;50.240;2.696;2023-05-02T14:03:12;6.03;;;4.35;;
73776;SDS011;62088;50.240;2.696;2023-05-02T14:05:40;6.53;;;4.18;;
73776;SDS011;62088;50.240;2.696;2023-05-02T14:08:09;7.72;;;5.30;;
73776;SDS011;62088;50.240;2.696;2023-05-02T14:10:37;7.90;;;4.50;;
73776;SDS011;62088;50.240;2.696;2023-05-02T14:13:04;5.95;;;4.25;;
73776;SDS011;62088;50.240;2.696;2023-05-02T14:15:31;6.15;;;4.32;;
73776;SDS011;62088;50.240;2.696;2023-05-02T14:18:01;7.93;;;4.90;;
73776;SDS011;62088;50.240;2.696;2023-05-02T14:20:28;6.82;;;4.20;;
73776;SDS011;62088;50.240;2.696;2023-05-02T14:22:55;6.95;;;4.28;;
73776;SDS011;62088;50.240;2.696;2023-05-02T14:25:22;7.38;;;4.43;;
73776;SDS011;62088;50.240;2.696;2023-05-02T14:27:49;6.97;;;4.85;;
73776;SDS011;62088;50.240;2.696;2023-05-02T14:30:16;6.38;;;4.28;;
73776;SDS011;62088;50.240;2.696;2023-05-02T14:32:43;9.05;;;4.32;;
73776;SDS011;62088;50.240;2.696;2023-05-02T14:35:11;6.35;;;4.22;;
73776;SDS011;62088;50.240;2.696;2023-05-02T14:37:38;5.85;;;4.32;;
73776;SDS011;62088;50.240;2.696;2023-05-02T14:40:05;6.15;;;4.03;;
73776;SDS011;62088;50.240;2.696;2023-05-02T14:42:33;5.82;;;3.80;;
73776;SDS011;62088;50.240;2.696;2023-05-02T14:45:00;8.88;;;3.90;;
73776;SDS011;62088;50.240;2.696;2023-05-02T14:47:28;5.78;;;3.50;;
73776;SDS011;62088;50.240;2.696;2023-05-02T14:49:58;5.82;;;3.42;;
73776;SDS011;62088;50.240;2.696;2023-05-02T14:52:25;5.65;;;3.75;;
73776;SDS011;62088;50.240;2.696;2023-05-02T14:54:53;8.20;;;4.45;;
73776;SDS011;62088;50.240;2.696;2023-05-02T14:57:20;7.63;;;4.38;;
73776;SDS011;62088;50.240;2.696;2023-05-02T14:59:47;6.68;;;4.18;;
73776;SDS011;62088;50.240;2.696;2023-05-02T15:02:14;7.38;;;4.03;;
73776;SDS011;62088;50.240;2.696;2023-05-02T15:04:41;5.53;;;3.53;;
73776;SDS011;62088;50.240;2.696;2023-05-02T15:07:08;6.43;;;4.07;;
73776;SDS011;62088;50.240;2.696;2023-05-02T15:09:36;8.68;;;4.43;;
73776;SDS011;62088;50.240;2.696;2023-05-02T15:12:03;7.53;;;4.00;;
73776;SDS011;62088;50.240;2.696;2023-05-02T15:14:30;8.52;;;4.80;;
73776;SDS011;62088;50.240;2.696;2023-05-02T15:16:57;7.65;;;5.20;;
73776;SDS011;62088;50.240;2.696;2023-05-02T15:19:24;8.52;;;4.30;;
73776;SDS011;62088;50.240;2.696;2023-05-02T15:21:51;7.03;;;4.38;;
73776;SDS011;62088;50.240;2.696;2023-05-02T15:24:18;7.47;;;4.07;;